National Weather Service United States Department of Commerce

Severe Storms; Fire Danger; and Strong Pacific Storms

More strong storms on tap for the Pacific Northwest this weekend. Heavy rains could produce flooding and mudslides. Saturday, a cold front moving into the central U.S. will bring potential for severe thunderstorms containing damaging winds, large hail, and isolated tornadoes; and localized flooding potential. Dry winds in southwestern California will keep fire weather threats high. Read More >

                                     ZTL Airspace Summary / KTYS TAF                     For ATC Planning Purposes Only
ZTL Airspace Summary:
High pressure will continue to dominate the airspace. Expect VFR conditions under SCT/BKN cirrus clouds after patchy LIFR/MVFR fog burns off by 14-15z. Surface winds will be mainly northeast to southeast at 3-10kts and frequently calm. Flight Hazards: MOD turbulence between FL300-410 over TN and N AL until 15z.

Updated:10/21/2017 6:05 AM
 

Knoxville Terminal Aerodrome Forecast:
 
FTUS80 KTYS 210527 RRC
KTYS 210526Z 2106/2206 VRB04KT P6SM BKN250
      TEMPO 2112/2113 5SM BR SCT002

 

TYS METAR:  
SAUS80 KTYS 211000 RRB
METAR KTYS 210953Z 00000KT 10SM FEW005 09/09 A3024 RMK AO2 SLP235
     T00890089 $

Go to KTYS TAF TDA
Go to KTYS TAF TDA

TYS TRACON HAZARDS
TYS TRACON: SFC-12000
AVG CIG BASE WHERE REPORTED BLW 10000FT: 200
LOWEST REPORTED CIG: 200
LOWEST REPORTED FLIGHT CAT: LIFR
METARS:
KDKX 211015Z AUTO 00000KT M1/4SM FG OVC002 09/09 A3027 RMK A01
KMMI 211015Z AUTO 00000KT 10SM CLR 06/06 A3027 RMK
KMOR 211015Z AUTO 00000KT 10SM CLR 10/09 A3026 RMK A01
KGKT 211015Z AUTO 00000KT 10SM CLR 07/07 A3026 RMK A01
KTYS 210953Z 00000KT 10SM FEW005 09/09 A3024 RMK AO2 SLP235 T00890089 $
KMNV 211015Z AUTO 00000KT 10SM CLR 09/09 A3024 RMK A01
KOQT 210953Z AUTO 00000KT 1/2SM FG VV002 09/09 A3027 RMK AO2 RAB42E52 SLP246 P0000 T00940094

TYS TRACON HAZARD

Forecast Surface Map Loop / Collaborative Convective Forecast Product / Vertical Wind Profile
Weather Map

 

AIRMETs & SIGMETS/ Southeast Radar loop / Satellite Image (click on image to enlarge)
Weather Map Southeast Radar Loop

satellite